Portada
METAR-TAF:

METAR-TAF

Aeroports :

Iqaluit, Nunavut, Canadà

latitud: 63-45N, longitud: 068-33W, altitud: 34 m

Observació

L'informe es va fer fa 1 hora i 4 minuts, a les 08:00 UTC
Vent 5 kt del Est, variant entre Nord-Est i Est/Sud-Est
Temperatura -22°C
Humitat 64%
Pressió 1008 hPa
Visibilitat: 24.1 km
Cel clar

METAR: CYFB 200800Z 10005KT 040V120 15SM SKC M22/M27 A2976 RMK SLP085

Hora: 04:04 (09:04 UTC)

Pronòstic

L'informe es va fer fa 3 hores i 23 minuts, a les 05:41 UTC
Pronòstic vàlid del 20 a les 06 UTC al 21 a les 06 UTC
Vent 3 kt amb direcció variable
Visibilitat: 10 km
Escasses núvols a una alçada de 12000 ft
Evolucionant progressivament
l' 20 a les 16 UTC al 20 a les 18 UTC
Vent 12 kt del Nord/Nord-Oest
Evolucionant progressivament
l' 21 a les 00 UTC al 21 a les 02 UTC
Vent 20 kt del Nord/Nord-Oest

TAF: CYFB 200541Z 2006/2106 VRB03KT P6SM FEW120 BECMG 2016/2018 33012KT BECMG 2100/2102 33020KT RMK NXT FCST BY 201200Z

Observacions i pronòstics meteorològics de més de 4000 aeroports (METAR i TAF).

Les estacions disponibles són els punts grocs i vermells al mapa.

Posi el ratolí al punt desitjat per veure el nom de l'estació.

Feu clic per veure les observacions i els pronòstics meteorològics.

Per canviar el mapa: feu clic els botons verds amb una creu de color negre per apropar; al botó verd amb un guió per allunyar la imatge; o en les fletxes verdes per a mapes adjacents.


METAR-TAF: